sensor_id;sensor_type;location;lat;lon;timestamp;pressure;altitude;pressure_sealevel;temperature;humidity
72560;BME280;62987;52.382;9.752;2023-12-04T00:00:04;101223.03;;;-0.13;100.00
72560;BME280;62987;52.382;9.752;2023-12-04T00:02:40;101222.91;;;-0.22;100.00
72560;BME280;62987;52.382;9.752;2023-12-04T00:05:08;101214.22;;;-0.21;100.00
72560;BME280;62987;52.382;9.752;2023-12-04T00:07:41;101220.09;;;-0.42;100.00
72560;BME280;62987;52.382;9.752;2023-12-04T00:10:10;101205.38;;;-0.35;100.00
72560;BME280;62987;52.382;9.752;2023-12-04T00:12:38;101224.63;;;-0.27;100.00
72560;BME280;62987;52.382;9.752;2023-12-04T00:15:08;101225.56;;;-0.21;100.00
72560;BME280;62987;52.382;9.752;2023-12-04T00:17:36;101216.69;;;-0.35;100.00
72560;BME280;62987;52.382;9.752;2023-12-04T00:20:08;101209.78;;;-0.28;100.00
72560;BME280;62987;52.382;9.752;2023-12-04T00:22:37;101212.38;;;-0.30;100.00
72560;BME280;62987;52.382;9.752;2023-12-04T00:25:08;101201.03;;;-0.33;100.00
72560;BME280;62987;52.382;9.752;2023-12-04T00:27:39;101208.91;;;-0.30;100.00
72560;BME280;62987;52.382;9.752;2023-12-04T00:30:09;101199.50;;;-0.13;100.00
72560;BME280;62987;52.382;9.752;2023-12-04T00:32:38;101198.59;;;-0.15;100.00
72560;BME280;62987;52.382;9.752;2023-12-04T00:35:07;101196.69;;;-0.31;100.00
72560;BME280;62987;52.382;9.752;2023-12-04T00:37:36;101185.41;;;-0.26;100.00
72560;BME280;62987;52.382;9.752;2023-12-04T00:40:06;101176.03;;;-0.07;100.00
72560;BME280;62987;52.382;9.752;2023-12-04T00:42:36;101174.31;;;-0.04;100.00
72560;BME280;62987;52.382;9.752;2023-12-04T00:45:05;101176.09;;;0.02;100.00
72560;BME280;62987;52.382;9.752;2023-12-04T00:47:37;101167.28;;;-0.09;100.00
72560;BME280;62987;52.382;9.752;2023-12-04T00:50:07;101166.28;;;-0.23;100.00
72560;BME280;62987;52.382;9.752;2023-12-04T00:52:35;101165.38;;;-0.25;100.00
72560;BME280;62987;52.382;9.752;2023-12-04T00:55:05;101158.44;;;-0.23;100.00
72560;BME280;62987;52.382;9.752;2023-12-04T00:57:33;101114.84;;;-0.26;100.00
72560;BME280;62987;52.382;9.752;2023-12-04T01:00:04;101142.09;;;-0.01;100.00
72560;BME280;62987;52.382;9.752;2023-12-04T01:02:33;101135.09;;;-0.07;100.00
72560;BME280;62987;52.382;9.752;2023-12-04T01:05:04;101114.06;;;-0.20;100.00
72560;BME280;62987;52.382;9.752;2023-12-04T01:07:32;101118.47;;;-0.15;100.00
72560;BME280;62987;52.382;9.752;2023-12-04T01:10:03;101123.78;;;-0.01;100.00
72560;BME280;62987;52.382;9.752;2023-12-04T01:12:32;101127.19;;;-0.14;100.00
72560;BME280;62987;52.382;9.752;2023-12-04T01:15:01;101107.91;;;-0.25;100.00
72560;BME280;62987;52.382;9.752;2023-12-04T01:17:33;101116.72;;;-0.14;100.00
72560;BME280;62987;52.382;9.752;2023-12-04T01:20:01;101118.56;;;-0.01;100.00
72560;BME280;62987;52.382;9.752;2023-12-04T01:22:31;101106.44;;;0.10;100.00
72560;BME280;62987;52.382;9.752;2023-12-04T01:25:00;101095.81;;;-0.14;100.00
72560;BME280;62987;52.382;9.752;2023-12-04T01:27:31;101101.16;;;0.07;100.00
72560;BME280;62987;52.382;9.752;2023-12-04T01:30:02;101094.28;;;0.18;100.00
72560;BME280;62987;52.382;9.752;2023-12-04T01:32:32;101075.13;;;0.19;100.00
72560;BME280;62987;52.382;9.752;2023-12-04T01:35:01;101083.81;;;0.12;100.00
72560;BME280;62987;52.382;9.752;2023-12-04T01:37:29;101090.84;;;0.28;100.00
72560;BME280;62987;52.382;9.752;2023-12-04T01:39:59;101096.06;;;0.19;100.00
72560;BME280;62987;52.382;9.752;2023-12-04T01:42:28;101073.34;;;0.15;100.00
72560;BME280;62987;52.382;9.752;2023-12-04T01:44:57;101074.25;;;0.19;100.00
72560;BME280;62987;52.382;9.752;2023-12-04T01:47:25;101067.22;;;0.15;100.00
72560;BME280;62987;52.382;9.752;2023-12-04T01:49:55;101072.53;;;0.27;100.00
72560;BME280;62987;52.382;9.752;2023-12-04T01:52:23;101055.75;;;-0.10;100.00
72560;BME280;62987;52.382;9.752;2023-12-04T01:54:52;101061.09;;;0.08;100.00
72560;BME280;62987;52.382;9.752;2023-12-04T01:57:21;101062.84;;;0.06;100.00
72560;BME280;62987;52.382;9.752;2023-12-04T01:59:49;101058.19;;;-0.36;100.00
72560;BME280;62987;52.382;9.752;2023-12-04T02:02:18;101061.91;;;0.01;100.00
72560;BME280;62987;52.382;9.752;2023-12-04T02:04:48;101055.00;;;0.09;100.00
72560;BME280;62987;52.382;9.752;2023-12-04T02:07:18;101056.63;;;-0.11;100.00
72560;BME280;62987;52.382;9.752;2023-12-04T02:09:47;101059.22;;;-0.11;100.00
72560;BME280;62987;52.382;9.752;2023-12-04T02:12:15;101053.19;;;-0.07;100.00
72560;BME280;62987;52.382;9.752;2023-12-04T02:14:46;101055.78;;;-0.07;100.00
72560;BME280;62987;52.382;9.752;2023-12-04T02:17:16;101052.44;;;0.12;100.00
72560;BME280;62987;52.382;9.752;2023-12-04T02:19:45;101039.94;;;-0.25;100.00
72560;BME280;62987;52.382;9.752;2023-12-04T02:22:13;101035.63;;;-0.22;100.00
72560;BME280;62987;52.382;9.752;2023-12-04T02:24:43;101033.09;;;-0.11;100.00
72560;BME280;62987;52.382;9.752;2023-12-04T02:27:16;101025.38;;;0.06;100.00
72560;BME280;62987;52.382;9.752;2023-12-04T02:29:47;101027.91;;;-0.05;100.00
72560;BME280;62987;52.382;9.752;2023-12-04T02:32:18;101025.38;;;0.10;100.00
72560;BME280;62987;52.382;9.752;2023-12-04T02:34:48;101021.91;;;0.14;100.00
72560;BME280;62987;52.382;9.752;2023-12-04T02:37:17;101021.00;;;0.06;100.00
72560;BME280;62987;52.382;9.752;2023-12-04T02:39:49;101024.53;;;0.11;100.00
72560;BME280;62987;52.382;9.752;2023-12-04T02:42:20;101018.38;;;0.05;100.00
72560;BME280;62987;52.382;9.752;2023-12-04T02:44:51;101010.53;;;0.00;100.00
72560;BME280;62987;52.382;9.752;2023-12-04T02:47:20;100997.44;;;0.03;100.00
72560;BME280;62987;52.382;9.752;2023-12-04T02:49:48;101000.09;;;0.09;100.00
72560;BME280;62987;52.382;9.752;2023-12-04T02:52:17;101007.13;;;0.19;100.00
72560;BME280;62987;52.382;9.752;2023-12-04T02:54:49;100973.94;;;0.00;100.00
72560;BME280;62987;52.382;9.752;2023-12-04T02:57:18;100997.53;;;0.17;100.00
72560;BME280;62987;52.382;9.752;2023-12-04T02:59:47;100988.88;;;0.31;100.00
72560;BME280;62987;52.382;9.752;2023-12-04T03:02:15;100981.88;;;0.27;100.00
72560;BME280;62987;52.382;9.752;2023-12-04T03:04:43;100973.09;;;0.13;100.00
72560;BME280;62987;52.382;9.752;2023-12-04T03:07:12;100968.84;;;0.43;100.00
72560;BME280;62987;52.382;9.752;2023-12-04T03:09:43;100977.56;;;0.32;100.00
72560;BME280;62987;52.382;9.752;2023-12-04T03:12:17;100968.88;;;0.50;100.00
72560;BME280;62987;52.382;9.752;2023-12-04T03:14:45;100968.00;;;0.48;100.00
72560;BME280;62987;52.382;9.752;2023-12-04T03:17:14;100952.31;;;0.44;100.00
72560;BME280;62987;52.382;9.752;2023-12-04T03:19:42;100968.88;;;0.49;100.00
72560;BME280;62987;52.382;9.752;2023-12-04T03:22:12;100962.78;;;0.50;100.00
72560;BME280;62987;52.382;9.752;2023-12-04T03:24:40;100964.56;;;0.58;100.00
72560;BME280;62987;52.382;9.752;2023-12-04T03:27:09;100965.41;;;0.59;100.00
72560;BME280;62987;52.382;9.752;2023-12-04T03:29:39;100965.41;;;0.59;100.00
72560;BME280;62987;52.382;9.752;2023-12-04T03:32:07;100961.91;;;0.60;100.00
72560;BME280;62987;52.382;9.752;2023-12-04T03:34:35;100947.09;;;0.45;100.00
72560;BME280;62987;52.382;9.752;2023-12-04T03:37:04;100961.03;;;0.53;100.00
72560;BME280;62987;52.382;9.752;2023-12-04T03:39:33;100955.84;;;0.64;100.00
72560;BME280;62987;52.382;9.752;2023-12-04T03:42:02;100946.22;;;0.45;100.00
72560;BME280;62987;52.382;9.752;2023-12-04T03:44:30;100927.91;;;0.54;100.00
72560;BME280;62987;52.382;9.752;2023-12-04T03:47:00;100917.41;;;0.37;100.00
72560;BME280;62987;52.382;9.752;2023-12-04T03:49:28;100927.00;;;0.46;100.00
72560;BME280;62987;52.382;9.752;2023-12-04T03:51:57;100935.75;;;0.54;100.00
72560;BME280;62987;52.382;9.752;2023-12-04T03:54:27;100914.81;;;0.51;100.00
72560;BME280;62987;52.382;9.752;2023-12-04T03:56:56;100906.94;;;0.43;100.00
72560;BME280;62987;52.382;9.752;2023-12-04T03:59:26;100903.50;;;0.52;100.00
72560;BME280;62987;52.382;9.752;2023-12-04T04:01:57;100910.44;;;0.54;100.00
72560;BME280;62987;52.382;9.752;2023-12-04T04:04:26;100901.72;;;0.52;100.00
72560;BME280;62987;52.382;9.752;2023-12-04T04:06:55;100896.50;;;0.60;100.00
72560;BME280;62987;52.382;9.752;2023-12-04T04:09:23;100894.75;;;0.45;100.00
72560;BME280;62987;52.382;9.752;2023-12-04T04:11:52;100890.38;;;0.49;100.00
72560;BME280;62987;52.382;9.752;2023-12-04T04:14:20;100872.91;;;0.34;100.00
72560;BME280;62987;52.382;9.752;2023-12-04T04:16:50;100886.91;;;0.48;100.00
72560;BME280;62987;52.382;9.752;2023-12-04T04:19:18;100887.75;;;0.36;100.00
72560;BME280;62987;52.382;9.752;2023-12-04T04:21:48;100879.94;;;0.44;100.00
72560;BME280;62987;52.382;9.752;2023-12-04T04:24:20;100881.63;;;0.34;100.00
72560;BME280;62987;52.382;9.752;2023-12-04T04:26:48;100876.41;;;0.39;100.00
72560;BME280;62987;52.382;9.752;2023-12-04T04:29:16;100865.94;;;0.28;100.00
72560;BME280;62987;52.382;9.752;2023-12-04T04:31:45;100869.44;;;0.35;100.00
72560;BME280;62987;52.382;9.752;2023-12-04T04:34:13;100852.81;;;0.15;100.00
72560;BME280;62987;52.382;9.752;2023-12-04T04:36:42;100858.97;;;0.36;100.00
72560;BME280;62987;52.382;9.752;2023-12-04T04:39:13;100850.19;;;1.36;100.00
72560;BME280;62987;52.382;9.752;2023-12-04T04:41:42;100855.50;;;1.12;100.00
72560;BME280;62987;52.382;9.752;2023-12-04T04:44:13;100861.63;;;1.08;100.00
72560;BME280;62987;52.382;9.752;2023-12-04T04:46:42;100851.13;;;1.06;100.00
72560;BME280;62987;52.382;9.752;2023-12-04T04:49:10;100845.94;;;0.82;100.00
72560;BME280;62987;52.382;9.752;2023-12-04T04:51:39;100848.56;;;0.82;100.00
72560;BME280;62987;52.382;9.752;2023-12-04T04:54:07;100850.28;;;0.89;100.00
72560;BME280;62987;52.382;9.752;2023-12-04T04:56:37;100842.44;;;0.94;100.00
72560;BME280;62987;52.382;9.752;2023-12-04T04:59:05;100859.88;;;0.78;100.00
72560;BME280;62987;52.382;9.752;2023-12-04T05:01:34;100850.28;;;0.59;100.00
72560;BME280;62987;52.382;9.752;2023-12-04T05:04:03;100840.69;;;0.76;100.00
72560;BME280;62987;52.382;9.752;2023-12-04T05:06:32;100841.56;;;0.64;100.00
72560;BME280;62987;52.382;9.752;2023-12-04T05:09:00;100836.31;;;0.52;100.00
72560;BME280;62987;52.382;9.752;2023-12-04T05:11:30;100838.03;;;0.46;100.00
72560;BME280;62987;52.382;9.752;2023-12-04T05:14:00;100822.38;;;0.49;100.00
72560;BME280;62987;52.382;9.752;2023-12-04T05:16:28;100827.59;;;0.49;100.00
72560;BME280;62987;52.382;9.752;2023-12-04T05:18:56;100827.59;;;0.43;100.00
72560;BME280;62987;52.382;9.752;2023-12-04T05:21:27;100805.78;;;0.39;100.00
72560;BME280;62987;52.382;9.752;2023-12-04T05:23:55;100816.25;;;0.48;100.00
72560;BME280;62987;52.382;9.752;2023-12-04T05:26:24;100823.25;;;0.57;100.00
72560;BME280;62987;52.382;9.752;2023-12-04T05:28:52;100824.13;;;0.68;100.00
72560;BME280;62987;52.382;9.752;2023-12-04T05:31:22;100811.91;;;0.56;100.00
72560;BME280;62987;52.382;9.752;2023-12-04T05:33:51;100823.25;;;0.49;100.00
72560;BME280;62987;52.382;9.752;2023-12-04T05:36:20;100813.63;;;0.59;100.00
72560;BME280;62987;52.382;9.752;2023-12-04T05:38:48;100808.41;;;0.59;100.00
72560;BME280;62987;52.382;9.752;2023-12-04T05:41:17;100808.41;;;0.62;100.00
72560;BME280;62987;52.382;9.752;2023-12-04T05:43:45;100814.50;;;0.65;100.00
72560;BME280;62987;52.382;9.752;2023-12-04T05:46:13;100813.66;;;0.65;100.00
72560;BME280;62987;52.382;9.752;2023-12-04T05:48:44;100813.66;;;0.56;100.00
72560;BME280;62987;52.382;9.752;2023-12-04T05:51:13;100817.13;;;0.46;100.00
72560;BME280;62987;52.382;9.752;2023-12-04T05:53:46;100813.63;;;0.59;100.00
72560;BME280;62987;52.382;9.752;2023-12-04T05:56:14;100811.91;;;0.49;100.00
72560;BME280;62987;52.382;9.752;2023-12-04T05:58:43;100797.94;;;0.59;100.00
72560;BME280;62987;52.382;9.752;2023-12-04T06:01:12;100803.19;;;0.65;100.00
72560;BME280;62987;52.382;9.752;2023-12-04T06:04:05;100803.19;;;0.66;100.00
72560;BME280;62987;52.382;9.752;2023-12-04T06:06:34;100797.97;;;0.51;100.00
72560;BME280;62987;52.382;9.752;2023-12-04T06:09:03;100797.06;;;0.66;100.00
72560;BME280;62987;52.382;9.752;2023-12-04T06:11:32;100794.44;;;0.60;100.00
72560;BME280;62987;52.382;9.752;2023-12-04T06:16:11;100786.63;;;0.69;100.00
72560;BME280;62987;52.382;9.752;2023-12-04T06:18:40;100759.56;;;0.46;100.00
72560;BME280;62987;52.382;9.752;2023-12-04T06:21:08;100790.13;;;0.71;100.00
72560;BME280;62987;52.382;9.752;2023-12-04T06:23:37;100781.41;;;0.57;100.00
72560;BME280;62987;52.382;9.752;2023-12-04T06:28:34;100775.25;;;0.82;100.00
72560;BME280;62987;52.382;9.752;2023-12-04T06:31:03;100762.22;;;0.52;100.00
72560;BME280;62987;52.382;9.752;2023-12-04T06:33:32;100784.88;;;0.56;100.00
72560;BME280;62987;52.382;9.752;2023-12-04T06:36:07;100776.16;;;0.63;100.00
72560;BME280;62987;52.382;9.752;2023-12-04T06:38:38;100786.59;;;0.52;100.00
72560;BME280;62987;52.382;9.752;2023-12-04T06:41:08;100787.50;;;0.50;100.00
72560;BME280;62987;52.382;9.752;2023-12-04T06:43:39;100773.53;;;0.63;100.00
72560;BME280;62987;52.382;9.752;2023-12-04T06:46:09;100769.16;;;0.60;100.00
72560;BME280;62987;52.382;9.752;2023-12-04T06:48:41;100763.94;;;0.68;100.00
72560;BME280;62987;52.382;9.752;2023-12-04T06:51:11;100764.81;;;0.43;100.00
72560;BME280;62987;52.382;9.752;2023-12-04T06:53:40;100770.06;;;0.52;100.00
72560;BME280;62987;52.382;9.752;2023-12-04T06:56:09;100759.59;;;0.52;100.00
72560;BME280;62987;52.382;9.752;2023-12-04T06:58:39;100770.03;;;0.73;100.00
72560;BME280;62987;52.382;9.752;2023-12-04T07:01:08;100756.06;;;0.59;100.00
72560;BME280;62987;52.382;9.752;2023-12-04T07:03:39;100755.22;;;0.45;100.00
72560;BME280;62987;52.382;9.752;2023-12-04T07:06:08;100764.81;;;0.49;100.00
72560;BME280;62987;52.382;9.752;2023-12-04T07:08:36;100775.25;;;0.59;100.00
72560;BME280;62987;52.382;9.752;2023-12-04T07:11:05;100756.97;;;0.50;100.00
72560;BME280;62987;52.382;9.752;2023-12-04T07:13:35;100777.00;;;0.59;100.00
72560;BME280;62987;52.382;9.752;2023-12-04T07:16:06;100758.72;;;0.45;100.00
72560;BME280;62987;52.382;9.752;2023-12-04T07:18:34;100769.19;;;0.51;100.00
72560;BME280;62987;52.382;9.752;2023-12-04T07:21:04;100781.41;;;0.45;100.00
72560;BME280;62987;52.382;9.752;2023-12-04T07:23:36;100763.94;;;0.60;100.00
72560;BME280;62987;52.382;9.752;2023-12-04T07:26:05;100770.06;;;0.43;100.00
72560;BME280;62987;52.382;9.752;2023-12-04T07:28:34;100763.94;;;0.60;100.00
72560;BME280;62987;52.382;9.752;2023-12-04T07:31:05;100770.03;;;0.55;100.00
72560;BME280;62987;52.382;9.752;2023-12-04T07:33:34;100739.53;;;0.37;100.00
72560;BME280;62987;52.382;9.752;2023-12-04T07:36:03;100770.91;;;0.69;100.00
72560;BME280;62987;52.382;9.752;2023-12-04T07:38:31;100764.81;;;0.47;100.00
72560;BME280;62987;52.382;9.752;2023-12-04T07:41:00;100770.06;;;0.58;100.00
72560;BME280;62987;52.382;9.752;2023-12-04T07:43:28;100760.44;;;0.52;100.00
72560;BME280;62987;52.382;9.752;2023-12-04T07:45:57;100780.50;;;0.49;100.00
72560;BME280;62987;52.382;9.752;2023-12-04T07:48:28;100763.06;;;0.48;100.00
72560;BME280;62987;52.382;9.752;2023-12-04T07:50:57;100762.19;;;0.55;100.00
72560;BME280;62987;52.382;9.752;2023-12-04T07:53:26;100771.78;;;0.40;100.00
72560;BME280;62987;52.382;9.752;2023-12-04T07:55:54;100759.59;;;0.58;100.00
72560;BME280;62987;52.382;9.752;2023-12-04T07:58:24;100762.22;;;0.58;100.00
72560;BME280;62987;52.382;9.752;2023-12-04T08:00:52;100758.69;;;0.59;100.00
72560;BME280;62987;52.382;9.752;2023-12-04T08:03:21;100756.09;;;0.48;100.00
72560;BME280;62987;52.382;9.752;2023-12-04T08:05:52;100763.94;;;0.59;100.00
72560;BME280;62987;52.382;9.752;2023-12-04T08:08:20;100760.41;;;0.72;100.00
72560;BME280;62987;52.382;9.752;2023-12-04T08:10:49;100762.22;;;0.58;100.00
72560;BME280;62987;52.382;9.752;2023-12-04T08:13:17;100751.75;;;0.52;100.00
72560;BME280;62987;52.382;9.752;2023-12-04T08:15:47;100759.56;;;0.39;100.00
72560;BME280;62987;52.382;9.752;2023-12-04T08:18:16;100759.59;;;0.58;100.00
72560;BME280;62987;52.382;9.752;2023-12-04T08:20:44;100756.09;;;0.47;100.00
72560;BME280;62987;52.382;9.752;2023-12-04T08:23:15;100756.97;;;0.35;100.00
72560;BME280;62987;52.382;9.752;2023-12-04T08:25:43;100749.13;;;0.33;100.00
72560;BME280;62987;52.382;9.752;2023-12-04T08:28:12;100755.22;;;0.42;100.00
72560;BME280;62987;52.382;9.752;2023-12-04T08:30:41;100739.53;;;0.28;100.00
72560;BME280;62987;52.382;9.752;2023-12-04T08:33:10;100746.50;;;0.29;100.00
72560;BME280;62987;52.382;9.752;2023-12-04T08:35:39;100746.50;;;0.29;100.00
72560;BME280;62987;52.382;9.752;2023-12-04T08:38:08;100740.41;;;0.44;100.00
72560;BME280;62987;52.382;9.752;2023-12-04T08:40:37;100744.75;;;0.49;100.00
72560;BME280;62987;52.382;9.752;2023-12-04T08:43:07;100726.44;;;0.48;100.00
72560;BME280;62987;52.382;9.752;2023-12-04T08:45:35;100726.47;;;0.37;100.00
72560;BME280;62987;52.382;9.752;2023-12-04T08:48:04;100749.97;;;0.52;100.00
72560;BME280;62987;52.382;9.752;2023-12-04T08:50:34;100736.91;;;0.64;100.00
72560;BME280;62987;52.382;9.752;2023-12-04T08:53:04;100736.88;;;0.66;100.00
72560;BME280;62987;52.382;9.752;2023-12-04T08:55:32;100733.38;;;0.79;100.00
72560;BME280;62987;52.382;9.752;2023-12-04T08:58:02;100729.00;;;0.83;100.00
72560;BME280;62987;52.382;9.752;2023-12-04T09:00:32;100714.19;;;0.83;100.00
72560;BME280;62987;52.382;9.752;2023-12-04T09:03:03;100720.25;;;0.96;100.00
72560;BME280;62987;52.382;9.752;2023-12-04T09:05:38;100726.28;;;1.20;100.00
72560;BME280;62987;52.382;9.752;2023-12-04T09:08:07;100722.78;;;1.18;100.00
72560;BME280;62987;52.382;9.752;2023-12-04T09:10:39;100709.69;;;1.18;100.00
72560;BME280;62987;52.382;9.752;2023-12-04T09:13:29;100725.38;;;1.29;100.00
72560;BME280;62987;52.382;9.752;2023-12-04T09:15:59;100721.00;;;1.24;100.00
72560;BME280;62987;52.382;9.752;2023-12-04T09:18:30;100720.88;;;1.51;100.00
72560;BME280;62987;52.382;9.752;2023-12-04T09:20:59;100703.53;;;1.35;100.00
72560;BME280;62987;52.382;9.752;2023-12-04T09:23:27;100713.94;;;1.47;100.00
72560;BME280;62987;52.382;9.752;2023-12-04T09:25:56;100713.88;;;1.56;100.00
72560;BME280;62987;52.382;9.752;2023-12-04T09:28:25;100703.38;;;1.56;100.00
72560;BME280;62987;52.382;9.752;2023-12-04T09:30:56;100697.38;;;1.37;100.00
72560;BME280;62987;52.382;9.752;2023-12-04T09:33:25;100705.28;;;1.24;100.00
72560;BME280;62987;52.382;9.752;2023-12-04T09:35:54;100694.81;;;1.30;100.00
72560;BME280;62987;52.382;9.752;2023-12-04T09:38:24;100707.03;;;1.29;100.00
72560;BME280;62987;52.382;9.752;2023-12-04T09:40:55;100712.25;;;1.34;100.00
72560;BME280;62987;52.382;9.752;2023-12-04T09:43:27;100714.06;;;1.23;100.00
72560;BME280;62987;52.382;9.752;2023-12-04T09:45:59;100696.41;;;1.58;100.00
72560;BME280;62987;52.382;9.752;2023-12-04T09:48:29;100703.50;;;1.36;100.00
72560;BME280;62987;52.382;9.752;2023-12-04T09:51:01;100701.78;;;1.34;100.00
72560;BME280;62987;52.382;9.752;2023-12-04T09:53:35;100672.00;;;1.45;100.00
72560;BME280;62987;52.382;9.752;2023-12-04T09:56:05;100678.13;;;1.43;100.00
72560;BME280;62987;52.382;9.752;2023-12-04T09:58:39;100692.91;;;1.57;100.00
72560;BME280;62987;52.382;9.752;2023-12-04T10:01:11;100680.63;;;1.64;100.00
72560;BME280;62987;52.382;9.752;2023-12-04T10:03:40;100672.84;;;1.53;100.00
72560;BME280;62987;52.382;9.752;2023-12-04T10:06:08;100664.91;;;1.63;100.00
72560;BME280;62987;52.382;9.752;2023-12-04T10:08:37;100670.94;;;1.75;100.00
72560;BME280;62987;52.382;9.752;2023-12-04T10:11:06;100668.53;;;1.48;100.00
72560;BME280;62987;52.382;9.752;2023-12-04T10:13:38;100670.16;;;1.64;100.00
72560;BME280;62987;52.382;9.752;2023-12-04T10:16:34;100654.47;;;1.61;100.00
72560;BME280;62987;52.382;9.752;2023-12-04T10:19:18;100642.28;;;1.52;100.00
72560;BME280;62987;52.382;9.752;2023-12-04T10:21:48;100652.72;;;1.57;100.00
72560;BME280;62987;52.382;9.752;2023-12-04T10:24:31;100648.16;;;1.85;100.00
72560;BME280;62987;52.382;9.752;2023-12-04T10:27:01;100647.34;;;1.80;100.00
72560;BME280;62987;52.382;9.752;2023-12-04T10:29:41;100642.25;;;1.57;100.00
72560;BME280;62987;52.382;9.752;2023-12-04T10:32:12;100636.06;;;1.64;100.00
72560;BME280;62987;52.382;9.752;2023-12-04T10:34:41;100618.59;;;1.63;100.00
72560;BME280;62987;52.382;9.752;2023-12-04T10:37:10;100629.97;;;1.67;100.00
72560;BME280;62987;52.382;9.752;2023-12-04T10:39:46;100628.22;;;1.64;100.00
72560;BME280;62987;52.382;9.752;2023-12-04T10:42:26;100633.41;;;1.73;100.00
72560;BME280;62987;52.382;9.752;2023-12-04T10:44:59;100628.97;;;1.80;100.00
72560;BME280;62987;52.382;9.752;2023-12-04T10:47:29;100616.81;;;1.71;100.00
72560;BME280;62987;52.382;9.752;2023-12-04T10:49:59;100617.69;;;1.72;100.00
72560;BME280;62987;52.382;9.752;2023-12-04T10:52:28;100616.91;;;1.59;100.00
72560;BME280;62987;52.382;9.752;2023-12-04T10:54:58;100604.66;;;1.59;100.00
72560;BME280;62987;52.382;9.752;2023-12-04T10:57:36;100607.28;;;1.58;100.00
72560;BME280;62987;52.382;9.752;2023-12-04T11:00:06;100610.69;;;1.69;100.00
72560;BME280;62987;52.382;9.752;2023-12-04T11:02:40;100605.38;;;1.78;100.00
72560;BME280;62987;52.382;9.752;2023-12-04T11:05:16;100603.63;;;1.80;100.00
72560;BME280;62987;52.382;9.752;2023-12-04T11:07:53;100595.75;;;1.82;100.00
72560;BME280;62987;52.382;9.752;2023-12-04T11:10:47;100601.03;;;1.80;100.00
72560;BME280;62987;52.382;9.752;2023-12-04T11:13:21;100594.91;;;1.78;100.00
72560;BME280;62987;52.382;9.752;2023-12-04T11:15:52;100581.84;;;1.69;100.00
72560;BME280;62987;52.382;9.752;2023-12-04T11:18:27;100580.97;;;1.72;100.00
72560;BME280;62987;52.382;9.752;2023-12-04T11:21:02;100576.63;;;1.71;100.00
72560;BME280;62987;52.382;9.752;2023-12-04T11:23:35;100577.25;;;1.95;100.00
72560;BME280;62987;52.382;9.752;2023-12-04T11:26:05;100577.53;;;1.68;100.00
72560;BME280;62987;52.382;9.752;2023-12-04T11:28:34;100571.22;;;1.89;100.00
72560;BME280;62987;52.382;9.752;2023-12-04T11:31:05;100569.38;;;1.98;100.00
72560;BME280;62987;52.382;9.752;2023-12-04T11:33:36;100569.41;;;1.95;100.00
72560;BME280;62987;52.382;9.752;2023-12-04T11:36:07;100557.09;;;2.04;100.00
72560;BME280;62987;52.382;9.752;2023-12-04T11:38:44;100570.38;;;1.85;100.00
72560;BME280;62987;52.382;9.752;2023-12-04T11:41:16;100568.63;;;1.84;100.00
72560;BME280;62987;52.382;9.752;2023-12-04T11:43:51;100561.94;;;1.50;100.00
72560;BME280;62987;52.382;9.752;2023-12-04T11:46:22;100541.72;;;1.63;100.00
72560;BME280;62987;52.382;9.752;2023-12-04T11:48:56;100548.75;;;1.62;100.00
72560;BME280;62987;52.382;9.752;2023-12-04T11:51:47;100543.41;;;1.73;100.00
72560;BME280;62987;52.382;9.752;2023-12-04T11:54:21;100547.00;;;1.58;100.00
72560;BME280;62987;52.382;9.752;2023-12-04T11:56:58;100538.09;;;1.80;100.00
72560;BME280;62987;52.382;9.752;2023-12-04T11:59:27;100529.47;;;1.68;100.00
72560;BME280;62987;52.382;9.752;2023-12-04T12:01:56;100507.75;;;1.52;100.00
72560;BME280;62987;52.382;9.752;2023-12-04T12:04:28;100513.00;;;1.52;100.00
72560;BME280;62987;52.382;9.752;2023-12-04T12:06:58;100516.53;;;1.48;100.00
72560;BME280;62987;52.382;9.752;2023-12-04T12:09:30;100520.78;;;1.61;100.00
72560;BME280;62987;52.382;9.752;2023-12-04T12:12:00;100503.41;;;1.51;100.00
72560;BME280;62987;52.382;9.752;2023-12-04T12:14:29;100513.81;;;1.57;100.00
72560;BME280;62987;52.382;9.752;2023-12-04T12:16:59;100507.88;;;1.38;100.00
72560;BME280;62987;52.382;9.752;2023-12-04T12:19:29;100504.16;;;1.65;100.00
72560;BME280;62987;52.382;9.752;2023-12-04T12:21:58;100502.69;;;1.34;100.00
72560;BME280;62987;52.382;9.752;2023-12-04T12:24:29;100487.69;;;1.51;100.00
72560;BME280;62987;52.382;9.752;2023-12-04T12:27:01;100480.75;;;1.47;100.00
72560;BME280;62987;52.382;9.752;2023-12-04T12:29:30;100497.97;;;1.72;100.00
72560;BME280;62987;52.382;9.752;2023-12-04T12:31:58;100476.25;;;1.61;100.00
72560;BME280;62987;52.382;9.752;2023-12-04T12:34:27;100484.00;;;1.69;100.00
72560;BME280;62987;52.382;9.752;2023-12-04T12:36:57;100478.00;;;1.56;100.00
72560;BME280;62987;52.382;9.752;2023-12-04T12:39:25;100478.00;;;1.62;100.00
72560;BME280;62987;52.382;9.752;2023-12-04T12:41:54;100462.19;;;1.68;100.00
72560;BME280;62987;52.382;9.752;2023-12-04T12:44:22;100474.50;;;1.57;100.00
72560;BME280;62987;52.382;9.752;2023-12-04T12:46:51;100457.69;;;1.81;100.00
72560;BME280;62987;52.382;9.752;2023-12-04T12:49:20;100454.34;;;1.67;100.00
72560;BME280;62987;52.382;9.752;2023-12-04T12:52:05;100432.38;;;1.75;100.00
72560;BME280;62987;52.382;9.752;2023-12-04T12:54:37;100418.63;;;1.56;100.00
72560;BME280;62987;52.382;9.752;2023-12-04T12:57:05;100448.19;;;1.71;100.00
72560;BME280;62987;52.382;9.752;2023-12-04T12:59:38;100455.34;;;1.52;100.00
72560;BME280;62987;52.382;9.752;2023-12-04T13:02:06;100449.19;;;1.57;100.00
72560;BME280;62987;52.382;9.752;2023-12-04T13:04:38;100435.06;;;1.69;100.00
72560;BME280;62987;52.382;9.752;2023-12-04T13:07:08;100435.00;;;1.77;100.00